Terminal Aerodrome Forecast
Issued by NWS Mt. Holly, NJ

Home | Current Version | Previous Version | Text Only | Print | Product List | Glossary On
Versions: 1 2 3 4 5 6 7 8 9 10 11 12
000
FTUS41 KPHI 240521
TAFRDG
TAF
KRDG 240521Z 2406/2506 VRB05KT P6SM SKC
     FM241300 12005KT P6SM BKN250
     FM241500 14008KT P6SM BKN150
     FM241900 12009KT 6SM -RA OVC060
     FM242300 10009KT 4SM RA OVC035
     FM250300 10010KT 2SM RA BR OVC015=

USA.gov is the U.S. government's official web portal to all federal, state and local government web resources and services.